createdAt,value
2024-02-19T00:01:40.420Z,7.70
2024-02-19T00:04:07.660Z,7.60
2024-02-19T00:06:36.182Z,7.70
2024-02-19T00:09:03.299Z,7.70
2024-02-19T00:11:31.153Z,7.60
2024-02-19T00:13:59.029Z,7.40
2024-02-19T00:16:26.076Z,7.10
2024-02-19T00:18:53.318Z,7.20
2024-02-19T00:21:20.566Z,7.30
2024-02-19T00:23:47.538Z,7.40
2024-02-19T00:26:14.905Z,7.50
2024-02-19T00:28:41.888Z,7.60
2024-02-19T00:31:13.182Z,7.60
2024-02-19T00:33:40.755Z,7.40
2024-02-19T00:36:08.459Z,7.30
2024-02-19T00:38:35.547Z,7.20
2024-02-19T00:41:04.666Z,7.20
2024-02-19T00:43:32.515Z,7.10
2024-02-19T00:46:00.394Z,7.20
2024-02-19T00:48:27.489Z,7.30
2024-02-19T00:50:54.760Z,7.20
2024-02-19T00:53:21.796Z,7.20
2024-02-19T00:55:50.829Z,7.20
2024-02-19T00:58:19.228Z,7.20
2024-02-19T01:00:46.364Z,7.20
2024-02-19T01:03:14.615Z,7.20
2024-02-19T01:05:41.853Z,7.20
2024-02-19T01:08:08.877Z,7.20
2024-02-19T01:10:35.900Z,7.20
2024-02-19T01:13:03.080Z,7.20
2024-02-19T01:15:30.132Z,7.10
2024-02-19T01:17:57.078Z,7.10
2024-02-19T01:20:24.133Z,7.00
2024-02-19T01:22:52.927Z,7.10
2024-02-19T01:25:22.697Z,7.20
2024-02-19T01:27:49.712Z,7.00
2024-02-19T01:30:17.062Z,7.00
2024-02-19T01:32:44.064Z,6.90
2024-02-19T01:35:11.323Z,6.90
2024-02-19T01:37:38.449Z,6.90
2024-02-19T01:40:11.087Z,6.80
2024-02-19T01:42:38.853Z,6.80
2024-02-19T01:45:08.532Z,7.00
2024-02-19T01:47:36.706Z,6.90
2024-02-19T01:50:05.254Z,6.80
2024-02-19T01:52:32.480Z,6.70
2024-02-19T01:54:59.649Z,6.60
2024-02-19T01:57:26.785Z,6.60
2024-02-19T01:59:54.352Z,6.50
2024-02-19T02:02:23.491Z,6.50
2024-02-19T02:04:51.515Z,6.40
2024-02-19T02:07:19.672Z,6.40
2024-02-19T02:09:47.304Z,6.40
2024-02-19T02:12:14.429Z,6.20
2024-02-19T02:14:41.401Z,6.20
2024-02-19T02:17:09.439Z,6.20
2024-02-19T02:19:37.765Z,6.20
2024-02-19T02:22:05.685Z,6.30
2024-02-19T02:24:32.681Z,6.30
2024-02-19T02:26:59.784Z,6.20
2024-02-19T02:29:26.958Z,6.20
2024-02-19T02:31:54.052Z,6.20
2024-02-19T02:34:23.875Z,6.20
2024-02-19T02:36:51.005Z,6.20
2024-02-19T02:39:18.263Z,6.10
2024-02-19T02:41:45.254Z,6.10
2024-02-19T02:44:12.498Z,6.10
2024-02-19T02:46:39.433Z,6.00
2024-02-19T02:49:06.582Z,5.90
2024-02-19T02:51:33.646Z,6.00
2024-02-19T02:54:00.698Z,6.00
2024-02-19T02:56:28.453Z,6.00
2024-02-19T02:58:55.537Z,6.20
2024-02-19T03:01:30.333Z,6.40
2024-02-19T03:03:57.988Z,6.50
2024-02-19T03:06:25.325Z,6.70
2024-02-19T03:08:52.929Z,6.80
2024-02-19T03:11:20.025Z,6.80
2024-02-19T03:13:47.009Z,6.90
2024-02-19T03:16:16.904Z,6.80
2024-02-19T03:18:47.021Z,6.70
2024-02-19T03:21:17.222Z,6.70
2024-02-19T03:23:54.310Z,6.70
2024-02-19T03:28:58.930Z,6.80
2024-02-19T03:31:26.133Z,6.90
2024-02-19T03:33:53.901Z,6.90
2024-02-19T03:36:20.919Z,6.90
2024-02-19T03:38:47.861Z,6.90
2024-02-19T03:41:14.925Z,6.80
2024-02-19T03:43:41.851Z,6.80
2024-02-19T03:46:08.989Z,6.80
2024-02-19T03:48:36.138Z,6.80
2024-02-19T03:51:03.198Z,6.90
2024-02-19T03:53:30.558Z,6.80
2024-02-19T03:55:57.963Z,6.70
2024-02-19T03:58:25.707Z,6.60
2024-02-19T04:00:52.788Z,6.50
2024-02-19T04:03:19.836Z,6.50
2024-02-19T04:05:47.254Z,6.50
2024-02-19T04:08:14.300Z,6.40
2024-02-19T04:10:48.728Z,6.20
2024-02-19T04:13:20.260Z,6.40
2024-02-19T04:15:51.444Z,6.50
2024-02-19T04:18:18.804Z,6.50
2024-02-19T04:20:45.944Z,6.50
2024-02-19T04:23:13.055Z,6.50
2024-02-19T04:25:40.047Z,6.50
2024-02-19T04:28:07.206Z,6.50
2024-02-19T04:30:34.329Z,6.40
2024-02-19T04:33:01.496Z,6.50
2024-02-19T04:35:28.498Z,6.40
2024-02-19T04:37:55.474Z,6.50
2024-02-19T04:40:22.682Z,6.50
2024-02-19T04:42:50.059Z,6.50
2024-02-19T04:45:17.935Z,6.50
2024-02-19T04:47:45.015Z,6.60
2024-02-19T04:50:12.329Z,6.60
2024-02-19T04:52:39.662Z,6.60
2024-02-19T04:55:07.072Z,6.50
2024-02-19T04:57:34.038Z,6.60
2024-02-19T05:00:00.999Z,6.70
2024-02-19T05:02:28.014Z,6.60
2024-02-19T05:04:55.194Z,6.50
2024-02-19T05:07:22.523Z,6.40
2024-02-19T05:09:49.787Z,6.30
2024-02-19T05:12:16.758Z,6.40
2024-02-19T05:14:43.957Z,6.40
2024-02-19T05:17:10.918Z,6.50
2024-02-19T05:19:38.045Z,6.50
2024-02-19T05:22:05.439Z,6.50
2024-02-19T05:24:32.451Z,6.60
2024-02-19T05:26:59.566Z,6.60
2024-02-19T05:29:26.558Z,6.60
2024-02-19T05:31:53.808Z,6.60
2024-02-19T05:34:21.073Z,6.70
2024-02-19T05:36:48.524Z,6.70
2024-02-19T05:39:15.545Z,6.70
2024-02-19T05:41:42.734Z,6.70
2024-02-19T05:44:11.114Z,6.80
2024-02-19T05:46:38.390Z,6.80
2024-02-19T05:49:05.493Z,6.90
2024-02-19T05:51:32.518Z,6.90
2024-02-19T05:53:59.478Z,6.90
2024-02-19T05:56:27.890Z,6.90
2024-02-19T05:58:55.237Z,6.90
2024-02-19T06:01:22.662Z,6.90
2024-02-19T06:03:49.702Z,6.90
2024-02-19T06:06:16.915Z,6.90
2024-02-19T06:08:44.137Z,6.90
2024-02-19T06:11:11.209Z,6.90
2024-02-19T06:13:38.319Z,6.90
2024-02-19T06:16:05.666Z,6.90
2024-02-19T06:18:32.794Z,6.80
2024-02-19T06:20:59.901Z,6.80
2024-02-19T06:23:27.149Z,6.70
2024-02-19T06:25:54.451Z,6.70
2024-02-19T06:28:21.582Z,6.70
2024-02-19T06:30:48.774Z,6.70
2024-02-19T06:33:18.824Z,6.70
2024-02-19T06:35:45.890Z,6.80
2024-02-19T06:38:12.938Z,6.90
2024-02-19T06:40:39.924Z,6.90
2024-02-19T06:43:07.344Z,6.90
2024-02-19T06:45:34.371Z,6.90
2024-02-19T06:48:01.533Z,7.00
2024-02-19T06:50:28.577Z,7.00
2024-02-19T06:52:55.958Z,6.90
2024-02-19T06:55:23.088Z,6.90
2024-02-19T06:57:50.187Z,6.90
2024-02-19T07:00:17.436Z,6.90
2024-02-19T07:02:44.475Z,6.90
2024-02-19T07:05:12.048Z,6.90
2024-02-19T07:07:39.243Z,6.80
2024-02-19T07:10:06.722Z,6.80
2024-02-19T07:12:34.136Z,6.80
2024-02-19T07:15:01.124Z,6.70
2024-02-19T07:17:31.815Z,6.70
2024-02-19T07:20:02.662Z,6.70
2024-02-19T07:22:29.796Z,6.60
2024-02-19T07:25:06.002Z,6.60
2024-02-19T07:27:40.914Z,6.60
2024-02-19T07:30:10.665Z,6.60
2024-02-19T07:32:37.781Z,6.60
2024-02-19T07:35:05.826Z,6.50
2024-02-19T07:37:33.058Z,6.50
2024-02-19T07:40:00.077Z,6.50
2024-02-19T07:42:27.571Z,6.40
2024-02-19T07:44:54.536Z,6.30
2024-02-19T07:47:21.515Z,6.20
2024-02-19T07:49:48.671Z,6.10
2024-02-19T07:52:15.756Z,6.10
2024-02-19T07:54:42.837Z,6.10
2024-02-19T07:57:09.986Z,6.20
2024-02-19T07:59:37.326Z,6.10
2024-02-19T08:02:04.840Z,6.10
2024-02-19T08:04:32.129Z,6.20
2024-02-19T08:07:01.272Z,6.20
2024-02-19T08:09:29.002Z,6.20
2024-02-19T08:11:58.965Z,6.10
2024-02-19T08:14:26.372Z,6.00
2024-02-19T08:16:53.397Z,6.00
2024-02-19T08:19:20.833Z,6.00
2024-02-19T08:21:49.892Z,6.10
2024-02-19T08:24:17.137Z,6.10
2024-02-19T08:26:44.303Z,6.30
2024-02-19T08:29:11.878Z,6.50
2024-02-19T08:31:38.897Z,6.60
2024-02-19T08:34:06.136Z,6.80
2024-02-19T08:36:34.562Z,7.00
2024-02-19T08:39:01.986Z,7.40
2024-02-19T08:41:31.109Z,7.60
2024-02-19T08:43:58.272Z,7.80
2024-02-19T08:46:25.320Z,8.00
2024-02-19T08:48:55.409Z,8.00
2024-02-19T08:51:24.934Z,7.90
2024-02-19T08:53:56.922Z,7.90
2024-02-19T08:56:27.038Z,7.90
2024-02-19T08:58:54.262Z,7.90
2024-02-19T09:01:21.527Z,7.90
2024-02-19T09:03:49.274Z,8.00
2024-02-19T09:06:17.311Z,7.90
2024-02-19T09:08:44.742Z,8.00
2024-02-19T09:11:11.954Z,8.10
2024-02-19T09:13:39.048Z,8.20
2024-02-19T09:16:06.756Z,8.50
2024-02-19T09:18:34.484Z,8.80
2024-02-19T09:21:01.881Z,9.20
2024-02-19T09:23:31.063Z,9.60
2024-02-19T09:25:58.645Z,10.00
2024-02-19T09:28:25.697Z,10.20
2024-02-19T09:30:52.688Z,10.50
2024-02-19T09:33:20.085Z,10.80
2024-02-19T09:35:49.294Z,11.30
2024-02-19T09:38:17.411Z,11.60
2024-02-19T09:40:48.769Z,11.80
2024-02-19T09:43:16.029Z,11.80
2024-02-19T09:45:43.383Z,11.30
2024-02-19T09:48:14.133Z,11.30
2024-02-19T09:50:45.362Z,11.50
2024-02-19T09:53:13.154Z,11.60
2024-02-19T09:55:40.612Z,11.90
2024-02-19T09:58:08.413Z,11.80
2024-02-19T10:00:35.792Z,12.10
2024-02-19T10:03:08.524Z,11.80
2024-02-19T10:05:35.813Z,12.20
2024-02-19T10:08:06.486Z,11.90
2024-02-19T10:10:35.303Z,12.00
2024-02-19T10:13:02.597Z,12.10
2024-02-19T10:15:29.865Z,12.20
2024-02-19T10:17:56.917Z,12.10
2024-02-19T10:20:24.103Z,12.30
2024-02-19T10:22:51.146Z,12.50
2024-02-19T10:25:19.466Z,12.80
2024-02-19T10:27:46.726Z,12.70
2024-02-19T10:30:14.806Z,12.80
2024-02-19T10:32:47.414Z,12.90
2024-02-19T10:35:14.684Z,13.20
2024-02-19T10:37:41.834Z,13.20
2024-02-19T10:40:13.877Z,13.20
2024-02-19T10:42:41.659Z,13.50
2024-02-19T10:45:11.776Z,13.40
2024-02-19T10:47:39.784Z,13.50
2024-02-19T10:50:09.419Z,13.80
2024-02-19T10:52:40.983Z,14.00
2024-02-19T10:55:15.902Z,14.00
2024-02-19T10:57:56.165Z,14.10
2024-02-19T11:00:28.310Z,14.00
2024-02-19T11:03:09.209Z,13.90
2024-02-19T11:17:27.988Z,14.30
2024-02-19T11:19:55.650Z,14.70
2024-02-19T11:22:31.352Z,14.40
2024-02-19T11:24:59.060Z,14.20
2024-02-19T11:27:26.109Z,14.10
2024-02-19T11:29:58.432Z,14.40
2024-02-19T11:32:25.510Z,14.50
2024-02-19T11:34:53.096Z,14.30
2024-02-19T11:37:20.721Z,14.70
2024-02-19T11:39:47.929Z,14.60
2024-02-19T11:42:16.782Z,14.60
2024-02-19T11:44:45.313Z,14.80
2024-02-19T11:47:15.161Z,14.90
2024-02-19T11:49:42.977Z,15.10
2024-02-19T11:52:12.534Z,15.10
2024-02-19T11:54:41.052Z,15.50
2024-02-19T11:57:11.105Z,15.90
2024-02-19T11:59:38.461Z,15.80
2024-02-19T12:02:10.854Z,16.40
2024-02-19T12:04:39.225Z,16.10
2024-02-19T12:07:10.310Z,16.10
2024-02-19T12:09:38.155Z,16.30
2024-02-19T12:12:05.637Z,15.90
2024-02-19T12:14:33.290Z,16.10
2024-02-19T12:17:05.045Z,16.20
2024-02-19T12:19:32.613Z,16.30
2024-02-19T12:22:00.069Z,16.00
2024-02-19T12:24:28.044Z,15.30
2024-02-19T12:26:55.091Z,14.90
2024-02-19T12:29:22.226Z,14.80
2024-02-19T12:31:49.290Z,14.60
2024-02-19T12:34:16.440Z,14.30
2024-02-19T12:36:43.624Z,13.90
2024-02-19T12:39:12.152Z,13.20
2024-02-19T12:41:39.678Z,13.10
2024-02-19T12:44:07.167Z,13.30
2024-02-19T12:46:34.516Z,13.10
2024-02-19T12:49:02.448Z,13.00
2024-02-19T12:51:34.757Z,12.90
2024-02-19T12:54:02.208Z,13.10
2024-02-19T12:56:29.184Z,13.10
2024-02-19T12:58:56.185Z,13.10
2024-02-19T13:01:31.110Z,12.70
2024-02-19T13:04:00.686Z,12.50
2024-02-19T13:06:28.286Z,12.30
2024-02-19T13:08:55.662Z,12.30
2024-02-19T13:11:22.967Z,12.40
2024-02-19T13:13:49.979Z,12.50
2024-02-19T13:16:19.429Z,12.70
2024-02-19T13:18:52.783Z,12.60
2024-02-19T13:21:21.149Z,12.50
2024-02-19T13:23:48.988Z,12.30
2024-02-19T13:26:16.095Z,12.10
2024-02-19T13:28:43.134Z,11.80
2024-02-19T13:31:10.337Z,11.90
2024-02-19T13:33:37.717Z,11.90
2024-02-19T13:36:05.174Z,11.70
2024-02-19T13:38:32.473Z,11.70
2024-02-19T13:41:06.096Z,11.80
2024-02-19T13:43:34.218Z,11.70
2024-02-19T13:46:04.765Z,11.50
2024-02-19T13:48:33.466Z,11.50
2024-02-19T13:51:01.851Z,11.50
2024-02-19T13:53:30.770Z,11.40
2024-02-19T13:56:00.063Z,11.60
2024-02-19T13:58:28.727Z,11.70
2024-02-19T14:00:58.049Z,11.80
2024-02-19T14:03:26.103Z,11.70
2024-02-19T14:05:53.555Z,11.50
2024-02-19T14:08:21.604Z,11.50
2024-02-19T14:10:49.448Z,11.50
2024-02-19T14:13:17.553Z,11.30
2024-02-19T14:15:45.082Z,11.40
2024-02-19T14:18:12.373Z,11.20
2024-02-19T14:20:39.431Z,11.20
2024-02-19T14:23:08.208Z,11.30
2024-02-19T14:25:37.036Z,11.20
2024-02-19T14:28:05.713Z,11.00
2024-02-19T14:30:32.960Z,11.00
2024-02-19T14:33:00.243Z,10.80
2024-02-19T14:35:27.578Z,10.90
2024-02-19T14:37:55.621Z,10.90
2024-02-19T14:40:23.445Z,11.00
2024-02-19T14:42:51.717Z,11.20
2024-02-19T14:45:18.997Z,11.20
2024-02-19T14:47:49.270Z,11.20
2024-02-19T14:50:17.061Z,11.30
2024-02-19T14:52:44.598Z,11.30
2024-02-19T14:55:13.170Z,11.40
2024-02-19T14:57:45.473Z,11.30
2024-02-19T15:00:17.191Z,11.30
2024-02-19T15:02:46.336Z,11.50
2024-02-19T15:05:13.598Z,11.60
2024-02-19T15:07:45.683Z,11.70
2024-02-19T15:10:15.425Z,11.80
2024-02-19T15:12:42.582Z,11.70
2024-02-19T15:15:11.705Z,11.80
2024-02-19T15:17:38.789Z,11.60
2024-02-19T15:20:06.613Z,11.30
2024-02-19T15:22:33.666Z,11.20
2024-02-19T15:25:00.735Z,11.20
2024-02-19T15:27:27.992Z,11.10
2024-02-19T15:29:58.390Z,11.30
2024-02-19T15:32:25.870Z,11.30
2024-02-19T15:34:54.394Z,11.30
2024-02-19T15:37:23.295Z,11.20
2024-02-19T15:39:50.994Z,11.10
2024-02-19T15:42:18.225Z,11.00
2024-02-19T15:44:47.883Z,10.90
2024-02-19T15:47:15.232Z,11.00
2024-02-19T15:49:42.691Z,11.00
2024-02-19T15:52:09.981Z,10.90
2024-02-19T15:54:40.624Z,10.90
2024-02-19T15:57:07.649Z,10.80
2024-02-19T15:59:34.896Z,10.60
2024-02-19T16:02:02.074Z,10.50
2024-02-19T16:04:29.333Z,10.50
2024-02-19T16:06:56.524Z,10.40
2024-02-19T16:09:23.608Z,10.30
2024-02-19T16:11:51.599Z,10.20
2024-02-19T16:14:18.869Z,10.20
2024-02-19T16:16:45.856Z,10.10
2024-02-19T16:19:12.993Z,10.00
2024-02-19T16:21:40.155Z,10.00
2024-02-19T16:24:08.291Z,9.90
2024-02-19T16:26:35.490Z,9.80
2024-02-19T16:29:02.541Z,9.70
2024-02-19T16:31:29.965Z,9.50
2024-02-19T16:33:57.327Z,9.30
2024-02-19T16:36:27.340Z,9.30
2024-02-19T16:38:55.147Z,9.30
2024-02-19T16:41:23.752Z,9.10
2024-02-19T16:43:50.827Z,9.20
2024-02-19T16:46:24.402Z,9.30
2024-02-19T16:48:51.621Z,9.20
2024-02-19T16:51:18.658Z,9.10
2024-02-19T16:53:54.200Z,9.00
2024-02-19T16:56:23.404Z,9.00
2024-02-19T16:58:50.597Z,9.20
2024-02-19T17:01:18.909Z,9.20
2024-02-19T17:03:47.728Z,9.30
2024-02-19T17:06:15.083Z,9.30
2024-02-19T17:08:42.264Z,9.30
2024-02-19T17:11:09.695Z,9.30
2024-02-19T17:13:37.997Z,9.40
2024-02-19T17:16:05.767Z,9.40
2024-02-19T17:18:34.036Z,9.40
2024-02-19T17:21:04.990Z,9.50
2024-02-19T17:23:32.801Z,9.60
2024-02-19T17:25:59.798Z,9.60
2024-02-19T17:28:27.670Z,9.60
2024-02-19T17:30:54.829Z,9.70
2024-02-19T17:33:22.782Z,9.70
2024-02-19T17:35:50.112Z,9.70
2024-02-19T17:38:17.139Z,9.70
2024-02-19T17:40:45.497Z,9.70
2024-02-19T17:43:13.257Z,9.70
2024-02-19T17:45:40.390Z,9.70
2024-02-19T17:48:11.127Z,9.70
2024-02-19T17:50:42.174Z,9.70
2024-02-19T17:53:09.446Z,9.70
2024-02-19T17:55:36.621Z,9.60
2024-02-19T17:58:04.165Z,9.60
2024-02-19T18:00:31.282Z,9.40
2024-02-19T18:03:02.221Z,9.40
2024-02-19T18:05:29.569Z,9.40
2024-02-19T18:07:56.791Z,9.40
2024-02-19T18:10:23.931Z,9.30
2024-02-19T18:12:51.147Z,9.40
2024-02-19T18:15:22.712Z,9.40
2024-02-19T18:17:53.995Z,9.50
2024-02-19T18:20:21.436Z,9.50
2024-02-19T18:22:48.548Z,9.40
2024-02-19T18:25:19.959Z,9.40
2024-02-19T18:27:47.147Z,9.40
2024-02-19T18:30:14.845Z,9.30
2024-02-19T18:32:42.890Z,9.30
2024-02-19T18:35:10.581Z,9.40
2024-02-19T18:37:38.309Z,9.40
2024-02-19T18:40:09.970Z,9.40
2024-02-19T18:42:39.225Z,9.40
2024-02-19T18:45:06.908Z,9.40
2024-02-19T18:47:34.008Z,9.30
2024-02-19T18:50:01.375Z,9.30
2024-02-19T18:52:28.445Z,9.30
2024-02-19T18:54:55.679Z,9.20
2024-02-19T18:57:24.643Z,9.20
2024-02-19T18:59:51.874Z,9.10
2024-02-19T19:02:18.903Z,9.20
2024-02-19T19:04:46.645Z,9.20
2024-02-19T19:07:18.517Z,9.20
2024-02-19T19:09:46.454Z,9.30
2024-02-19T19:12:13.770Z,9.30
2024-02-19T19:14:40.900Z,9.40
2024-02-19T19:17:28.683Z,9.30
2024-02-19T19:19:55.913Z,9.30
2024-02-19T19:22:23.221Z,9.30
2024-02-19T19:24:50.769Z,9.30
2024-02-19T19:27:18.330Z,9.20
2024-02-19T19:29:45.308Z,9.20
2024-02-19T19:32:17.150Z,9.20
2024-02-19T19:34:44.996Z,9.20
2024-02-19T19:37:12.546Z,9.20
2024-02-19T19:39:39.684Z,9.20
2024-02-19T19:42:07.100Z,9.20
2024-02-19T19:44:34.218Z,9.20
2024-02-19T19:47:02.532Z,9.20
2024-02-19T19:49:29.836Z,9.20
2024-02-19T19:51:57.058Z,9.20
2024-02-19T19:54:24.120Z,9.20
2024-02-19T19:56:51.078Z,9.20
2024-02-19T19:59:19.458Z,9.10
2024-02-19T20:01:48.989Z,9.10
2024-02-19T20:04:16.067Z,9.10
2024-02-19T20:06:43.302Z,9.10
2024-02-19T20:09:10.319Z,9.10
2024-02-19T20:11:37.447Z,9.10
2024-02-19T20:14:05.123Z,9.10
2024-02-19T20:16:32.739Z,9.10
2024-02-19T20:19:00.005Z,9.10
2024-02-19T20:21:27.249Z,9.20
2024-02-19T20:23:54.881Z,9.10
2024-02-19T20:26:21.933Z,9.10
2024-02-19T20:28:48.910Z,9.30
2024-02-19T20:31:15.998Z,9.30
2024-02-19T20:33:43.152Z,9.20
2024-02-19T20:36:12.436Z,9.20
2024-02-19T20:38:42.333Z,9.10
2024-02-19T20:41:09.459Z,9.10
2024-02-19T20:43:36.656Z,9.00
2024-02-19T20:46:06.510Z,9.10
2024-02-19T20:48:33.844Z,9.10
2024-02-19T20:51:00.805Z,9.10
2024-02-19T20:53:27.934Z,9.00
2024-02-19T20:55:54.940Z,9.00
2024-02-19T20:58:22.146Z,9.00
2024-02-19T21:00:49.366Z,9.00
2024-02-19T21:03:16.383Z,9.00
2024-02-19T21:05:44.024Z,9.00
2024-02-19T21:08:11.822Z,8.90
2024-02-19T21:10:41.204Z,8.90
2024-02-19T21:13:08.352Z,8.90
2024-02-19T21:15:35.358Z,8.80
2024-02-19T21:18:07.922Z,8.90
2024-02-19T21:20:35.176Z,8.90
2024-02-19T21:23:02.508Z,8.90
2024-02-19T21:25:29.829Z,9.00
2024-02-19T21:27:56.874Z,8.90
2024-02-19T21:30:24.114Z,8.90
2024-02-19T21:32:53.743Z,8.90
2024-02-19T21:35:21.404Z,8.90
2024-02-19T21:37:49.627Z,8.90
2024-02-19T21:40:16.754Z,9.00
2024-02-19T21:42:43.797Z,8.90
2024-02-19T21:45:11.065Z,8.80
2024-02-19T21:47:38.537Z,8.70
2024-02-19T21:50:08.720Z,8.70
2024-02-19T21:52:36.333Z,8.70
2024-02-19T21:55:04.372Z,8.70
2024-02-19T21:57:37.106Z,8.70
2024-02-19T22:00:06.575Z,8.70
2024-02-19T22:02:33.639Z,8.70
2024-02-19T22:05:01.286Z,8.80
2024-02-19T22:07:32.582Z,8.80
2024-02-19T22:10:04.183Z,8.80
2024-02-19T22:12:31.857Z,8.70
2024-02-19T22:15:00.081Z,8.70
2024-02-19T22:17:29.907Z,8.60
2024-02-19T22:19:57.094Z,8.50
2024-02-19T22:22:25.084Z,8.50
2024-02-19T22:24:52.202Z,8.50
2024-02-19T22:27:19.302Z,8.50
2024-02-19T22:29:46.247Z,8.50
2024-02-19T22:32:13.224Z,8.50
2024-02-19T22:34:46.395Z,8.40
2024-02-19T22:37:15.167Z,8.40
2024-02-19T22:39:46.330Z,8.40
2024-02-19T22:42:13.588Z,8.40
2024-02-19T22:44:43.604Z,8.30
2024-02-19T22:47:10.787Z,8.20
2024-02-19T22:49:40.731Z,8.10
2024-02-19T22:52:08.607Z,8.10
2024-02-19T22:54:38.159Z,8.10
2024-02-19T22:57:05.632Z,8.10
2024-02-19T22:59:32.980Z,8.00
2024-02-19T23:02:02.800Z,8.00
2024-02-19T23:04:29.858Z,7.90
2024-02-19T23:06:57.352Z,7.90
2024-02-19T23:09:25.227Z,7.90
2024-02-19T23:11:52.259Z,7.90
2024-02-19T23:14:19.308Z,7.90
2024-02-19T23:16:46.433Z,7.90
2024-02-19T23:19:13.727Z,7.80
2024-02-19T23:21:40.927Z,7.80
2024-02-19T23:24:08.303Z,7.80
2024-02-19T23:26:35.329Z,7.90
2024-02-19T23:29:02.639Z,8.00
2024-02-19T23:31:30.599Z,8.00
2024-02-19T23:33:57.944Z,8.00
2024-02-19T23:36:25.341Z,8.00
2024-02-19T23:38:52.475Z,8.00
2024-02-19T23:41:19.701Z,8.00
2024-02-19T23:43:49.655Z,8.00
2024-02-19T23:46:17.164Z,7.90
2024-02-19T23:48:44.599Z,7.80
2024-02-19T23:51:11.658Z,7.80
2024-02-19T23:53:38.659Z,7.80
2024-02-19T23:56:06.144Z,7.90
2024-02-19T23:58:33.493Z,8.10
